sensor_id;sensor_type;location;lat;lon;timestamp;pressure;altitude;pressure_sealevel;temperature;humidity
19086;BME280;9675;51.538;6.728;2023-10-08T00:00:32;101868.97;;;20.68;96.76
19086;BME280;9675;51.538;6.728;2023-10-08T00:03:09;101880.28;;;20.65;97.26
19086;BME280;9675;51.538;6.728;2023-10-08T00:05:37;101887.19;;;20.63;97.26
19086;BME280;9675;51.538;6.728;2023-10-08T00:08:05;101880.19;;;20.62;97.61
19086;BME280;9675;51.538;6.728;2023-10-08T00:10:35;101875.78;;;20.60;97.14
19086;BME280;9675;51.538;6.728;2023-10-08T00:13:04;101891.41;;;20.57;98.07
19086;BME280;9675;51.538;6.728;2023-10-08T00:15:34;101885.28;;;20.56;98.57
19086;BME280;9675;51.538;6.728;2023-10-08T00:18:03;101879.97;;;20.53;98.67
19086;BME280;9675;51.538;6.728;2023-10-08T00:20:32;101895.59;;;20.50;98.86
19086;BME280;9675;51.538;6.728;2023-10-08T00:23:08;101892.13;;;20.51;99.01
19086;BME280;9675;51.538;6.728;2023-10-08T00:25:36;101906.06;;;20.50;99.19
19086;BME280;9675;51.538;6.728;2023-10-08T00:28:08;101886.81;;;20.48;98.68
19086;BME280;9675;51.538;6.728;2023-10-08T00:30:39;101908.56;;;20.47;99.51
19086;BME280;9675;51.538;6.728;2023-10-08T00:33:08;101903.28;;;20.44;99.23
19086;BME280;9675;51.538;6.728;2023-10-08T00:35:38;101909.34;;;20.43;99.56
19086;BME280;9675;51.538;6.728;2023-10-08T00:38:07;101918.03;;;20.42;99.71
19086;BME280;9675;51.538;6.728;2023-10-08T00:40:40;101909.34;;;20.43;99.78
19086;BME280;9675;51.538;6.728;2023-10-08T00:43:29;101917.13;;;20.40;99.96
19086;BME280;9675;51.538;6.728;2023-10-08T00:45:57;101904.94;;;20.41;99.56
19086;BME280;9675;51.538;6.728;2023-10-08T00:48:25;101906.56;;;20.37;99.67
19086;BME280;9675;51.538;6.728;2023-10-08T00:50:55;101915.28;;;20.36;100.00
19086;BME280;9675;51.538;6.728;2023-10-08T00:53:35;101909.13;;;20.34;100.00
19086;BME280;9675;51.538;6.728;2023-10-08T00:56:06;101912.56;;;20.33;100.00
19086;BME280;9675;51.538;6.728;2023-10-08T00:58:40;101917.69;;;20.30;100.00
19086;BME280;9675;51.538;6.728;2023-10-08T01:01:12;101921.16;;;20.29;100.00
19086;BME280;9675;51.538;6.728;2023-10-08T01:03:42;101914.97;;;20.27;100.00
19086;BME280;9675;51.538;6.728;2023-10-08T01:06:11;101929.78;;;20.26;100.00
19086;BME280;9675;51.538;6.728;2023-10-08T01:08:41;101918.41;;;20.24;100.00
19086;BME280;9675;51.538;6.728;2023-10-08T01:11:17;101921.81;;;20.22;100.00
19086;BME280;9675;51.538;6.728;2023-10-08T01:13:46;101921.78;;;20.20;100.00
19086;BME280;9675;51.538;6.728;2023-10-08T01:16:14;101913.78;;;20.16;100.00
19086;BME280;9675;51.538;6.728;2023-10-08T01:18:44;101937.34;;;20.16;100.00
19086;BME280;9675;51.538;6.728;2023-10-08T01:21:17;101926.03;;;20.17;100.00
19086;BME280;9675;51.538;6.728;2023-10-08T01:24:01;101939.94;;;20.16;100.00
19086;BME280;9675;51.538;6.728;2023-10-08T01:26:32;101936.44;;;20.14;100.00
19086;BME280;9675;51.538;6.728;2023-10-08T01:28:59;101934.66;;;20.13;100.00
19086;BME280;9675;51.538;6.728;2023-10-08T01:31:29;101938.94;;;20.11;100.00
19086;BME280;9675;51.538;6.728;2023-10-08T01:33:57;101939.81;;;20.10;100.00
19086;BME280;9675;51.538;6.728;2023-10-08T01:36:25;101931.91;;;20.08;100.00
19086;BME280;9675;51.538;6.728;2023-10-08T01:38:54;101930.13;;;20.07;100.00
19086;BME280;9675;51.538;6.728;2023-10-08T01:41:22;101922.22;;;20.06;100.00
19086;BME280;9675;51.538;6.728;2023-10-08T01:43:56;101923.94;;;20.04;100.00
19086;BME280;9675;51.538;6.728;2023-10-08T01:46:25;101920.38;;;20.02;100.00
19086;BME280;9675;51.538;6.728;2023-10-08T01:48:53;101915.16;;;20.02;100.00
19086;BME280;9675;51.538;6.728;2023-10-08T01:51:39;101915.06;;;19.99;100.00
19086;BME280;9675;51.538;6.728;2023-10-08T01:54:13;101926.31;;;19.96;100.00
19086;BME280;9675;51.538;6.728;2023-10-08T01:56:44;101921.91;;;19.95;100.00
19086;BME280;9675;51.538;6.728;2023-10-08T01:59:14;101917.50;;;19.92;100.00
19086;BME280;9675;51.538;6.728;2023-10-08T02:01:42;101916.56;;;19.90;100.00
19086;BME280;9675;51.538;6.728;2023-10-08T02:04:09;101918.28;;;19.88;100.00
19086;BME280;9675;51.538;6.728;2023-10-08T02:06:38;101915.59;;;19.87;100.00
19086;BME280;9675;51.538;6.728;2023-10-08T02:09:06;101921.63;;;19.84;100.00
19086;BME280;9675;51.538;6.728;2023-10-08T02:11:46;101919.88;;;19.83;100.00
19086;BME280;9675;51.538;6.728;2023-10-08T02:14:15;101909.31;;;19.80;100.00
19086;BME280;9675;51.538;6.728;2023-10-08T02:16:43;101920.59;;;19.79;100.00
19086;BME280;9675;51.538;6.728;2023-10-08T02:19:10;101902.28;;;19.78;100.00
19086;BME280;9675;51.538;6.728;2023-10-08T02:21:38;101896.94;;;19.75;100.00
19086;BME280;9675;51.538;6.728;2023-10-08T02:24:08;101876.00;;;19.73;100.00
19086;BME280;9675;51.538;6.728;2023-10-08T02:26:37;101865.44;;;19.70;100.00
19086;BME280;9675;51.538;6.728;2023-10-08T02:29:05;101888.13;;;19.71;100.00
19086;BME280;9675;51.538;6.728;2023-10-08T02:31:37;101913.38;;;19.71;100.00
19086;BME280;9675;51.538;6.728;2023-10-08T02:34:05;101932.50;;;19.70;100.00
19086;BME280;9675;51.538;6.728;2023-10-08T02:36:34;101910.63;;;19.66;100.00
19086;BME280;9675;51.538;6.728;2023-10-08T02:39:03;101910.56;;;19.63;100.00
19086;BME280;9675;51.538;6.728;2023-10-08T02:41:33;101883.47;;;19.61;100.00
19086;BME280;9675;51.538;6.728;2023-10-08T02:44:00;101892.09;;;19.59;100.00
19086;BME280;9675;51.538;6.728;2023-10-08T02:46:31;101910.25;;;19.54;100.00
19086;BME280;9675;51.538;6.728;2023-10-08T02:48:58;101936.38;;;19.54;100.00
19086;BME280;9675;51.538;6.728;2023-10-08T02:51:29;101948.53;;;19.52;100.00
19086;BME280;9675;51.538;6.728;2023-10-08T02:53:56;101950.25;;;19.51;100.00
19086;BME280;9675;51.538;6.728;2023-10-08T02:56:23;101938.91;;;19.51;100.00
19086;BME280;9675;51.538;6.728;2023-10-08T02:58:50;101964.22;;;19.52;100.00
19086;BME280;9675;51.538;6.728;2023-10-08T03:01:17;101959.00;;;19.52;100.00
19086;BME280;9675;51.538;6.728;2023-10-08T03:03:46;101944.19;;;19.52;100.00
19086;BME280;9675;51.538;6.728;2023-10-08T03:06:14;101962.50;;;19.52;100.00
19086;BME280;9675;51.538;6.728;2023-10-08T03:08:44;101957.22;;;19.51;100.00
19086;BME280;9675;51.538;6.728;2023-10-08T03:11:13;101981.56;;;19.50;100.00
19086;BME280;9675;51.538;6.728;2023-10-08T03:13:46;101988.47;;;19.48;100.00
19086;BME280;9675;51.538;6.728;2023-10-08T03:16:17;101974.56;;;19.49;100.00
19086;BME280;9675;51.538;6.728;2023-10-08T03:18:54;101981.47;;;19.47;100.00
19086;BME280;9675;51.538;6.728;2023-10-08T03:21:23;101967.47;;;19.45;100.00
19086;BME280;9675;51.538;6.728;2023-10-08T03:24:15;101978.72;;;19.44;100.00
19086;BME280;9675;51.538;6.728;2023-10-08T03:26:56;101967.28;;;19.40;100.00
19086;BME280;9675;51.538;6.728;2023-10-08T03:29:32;101966.25;;;19.35;100.00
19086;BME280;9675;51.538;6.728;2023-10-08T03:32:06;101951.47;;;19.36;100.00
19086;BME280;9675;51.538;6.728;2023-10-08T03:34:42;101940.91;;;19.33;100.00
19086;BME280;9675;51.538;6.728;2023-10-08T03:37:13;101937.38;;;19.31;100.00
19086;BME280;9675;51.538;6.728;2023-10-08T03:39:47;101936.50;;;19.30;100.00
19086;BME280;9675;51.538;6.728;2023-10-08T03:42:33;101966.13;;;19.31;100.00
19086;BME280;9675;51.538;6.728;2023-10-08T03:45:07;101952.16;;;19.30;100.00
19086;BME280;9675;51.538;6.728;2023-10-08T03:47:38;101949.50;;;19.29;100.00
19086;BME280;9675;51.538;6.728;2023-10-08T03:50:08;101928.50;;;19.26;100.00
19086;BME280;9675;51.538;6.728;2023-10-08T03:52:36;101963.28;;;19.25;100.00
19086;BME280;9675;51.538;6.728;2023-10-08T03:55:05;101976.34;;;19.25;100.00
19086;BME280;9675;51.538;6.728;2023-10-08T03:57:47;101962.47;;;19.26;100.00
19086;BME280;9675;51.538;6.728;2023-10-08T04:00:22;101958.06;;;19.25;100.00
19086;BME280;9675;51.538;6.728;2023-10-08T04:02:57;101953.69;;;19.24;100.00
19086;BME280;9675;51.538;6.728;2023-10-08T04:05:35;101952.78;;;19.22;100.00
19086;BME280;9675;51.538;6.728;2023-10-08T04:08:15;101955.31;;;19.20;100.00
19086;BME280;9675;51.538;6.728;2023-10-08T04:10:50;101953.53;;;19.19;100.00
19086;BME280;9675;51.538;6.728;2023-10-08T04:13:53;101965.66;;;19.17;100.00
19086;BME280;9675;51.538;6.728;2023-10-08T04:16:20;101975.25;;;19.17;100.00
19086;BME280;9675;51.538;6.728;2023-10-08T04:18:47;101973.47;;;19.16;100.00
19086;BME280;9675;51.538;6.728;2023-10-08T04:21:18;101954.22;;;19.14;100.00
19086;BME280;9675;51.538;6.728;2023-10-08T04:23:47;101976.91;;;19.15;100.00
19086;BME280;9675;51.538;6.728;2023-10-08T04:26:18;101971.59;;;19.12;100.00
19086;BME280;9675;51.538;6.728;2023-10-08T04:28:50;101967.19;;;19.10;100.00
19086;BME280;9675;51.538;6.728;2023-10-08T04:31:21;101977.59;;;19.09;100.00
19086;BME280;9675;51.538;6.728;2023-10-08T04:33:50;101974.97;;;19.09;100.00
19086;BME280;9675;51.538;6.728;2023-10-08T04:36:19;101993.19;;;19.07;100.00
19086;BME280;9675;51.538;6.728;2023-10-08T04:38:47;101985.25;;;19.04;100.00
19086;BME280;9675;51.538;6.728;2023-10-08T04:41:15;101979.16;;;19.04;100.00
19086;BME280;9675;51.538;6.728;2023-10-08T04:43:45;101986.94;;;19.02;100.00
19086;BME280;9675;51.538;6.728;2023-10-08T04:46:15;101979.09;;;19.02;100.00
19086;BME280;9675;51.538;6.728;2023-10-08T04:49:05;101980.88;;;19.03;100.00
19086;BME280;9675;51.538;6.728;2023-10-08T04:51:44;102001.69;;;19.02;100.00
19086;BME280;9675;51.538;6.728;2023-10-08T04:54:14;102000.84;;;19.01;100.00
19086;BME280;9675;51.538;6.728;2023-10-08T04:56:43;102022.59;;;19.02;100.00
19086;BME280;9675;51.538;6.728;2023-10-08T04:59:10;102021.59;;;18.98;100.00
19086;BME280;9675;51.538;6.728;2023-10-08T05:01:38;102031.06;;;18.95;100.00
19086;BME280;9675;51.538;6.728;2023-10-08T05:04:15;102033.69;;;18.95;100.00
19086;BME280;9675;51.538;6.728;2023-10-08T05:06:54;102033.69;;;18.96;100.00
19086;BME280;9675;51.538;6.728;2023-10-08T05:09:38;102025.84;;;18.95;100.00
19086;BME280;9675;51.538;6.728;2023-10-08T05:12:12;102034.50;;;18.94;100.00
19086;BME280;9675;51.538;6.728;2023-10-08T05:14:56;102037.06;;;18.92;100.00
19086;BME280;9675;51.538;6.728;2023-10-08T05:17:46;102037.88;;;18.91;100.00
19086;BME280;9675;51.538;6.728;2023-10-08T05:20:23;102036.00;;;18.87;100.00
19086;BME280;9675;51.538;6.728;2023-10-08T05:23:10;102029.88;;;18.85;100.00
19086;BME280;9675;51.538;6.728;2023-10-08T05:25:47;102037.56;;;18.82;100.00
19086;BME280;9675;51.538;6.728;2023-10-08T05:28:37;102019.28;;;18.82;100.00
19086;BME280;9675;51.538;6.728;2023-10-08T05:31:14;102000.94;;;18.79;100.00
19086;BME280;9675;51.538;6.728;2023-10-08T05:34:02;101997.38;;;18.77;100.00
19086;BME280;9675;51.538;6.728;2023-10-08T05:36:44;102006.88;;;18.75;100.00
19086;BME280;9675;51.538;6.728;2023-10-08T05:39:18;102001.59;;;18.74;100.00
19086;BME280;9675;51.538;6.728;2023-10-08T05:41:55;102009.44;;;18.74;100.00
19086;BME280;9675;51.538;6.728;2023-10-08T05:44:39;102007.75;;;18.76;100.00
19086;BME280;9675;51.538;6.728;2023-10-08T05:47:12;102028.59;;;18.74;100.00
19086;BME280;9675;51.538;6.728;2023-10-08T05:50:05;102021.59;;;18.73;100.00
19086;BME280;9675;51.538;6.728;2023-10-08T05:52:47;102028.53;;;18.73;100.00
19086;BME280;9675;51.538;6.728;2023-10-08T05:55:29;102038.06;;;18.72;100.00
19086;BME280;9675;51.538;6.728;2023-10-08T05:58:05;102035.47;;;18.72;100.00
19086;BME280;9675;51.538;6.728;2023-10-08T06:00:51;102022.31;;;18.69;100.00
19086;BME280;9675;51.538;6.728;2023-10-08T06:03:51;102016.97;;;18.66;100.00
19086;BME280;9675;51.538;6.728;2023-10-08T06:06:33;102012.66;;;18.66;100.00
19086;BME280;9675;51.538;6.728;2023-10-08T06:09:04;102054.38;;;18.65;100.00
19086;BME280;9675;51.538;6.728;2023-10-08T06:11:49;102036.03;;;18.63;100.00
19086;BME280;9675;51.538;6.728;2023-10-08T06:14:38;102040.38;;;18.63;100.00
19086;BME280;9675;51.538;6.728;2023-10-08T06:17:34;102055.06;;;18.61;100.00
19086;BME280;9675;51.538;6.728;2023-10-08T06:20:22;102079.41;;;18.60;100.00
19086;BME280;9675;51.538;6.728;2023-10-08T06:22:53;102050.72;;;18.60;100.00
19086;BME280;9675;51.538;6.728;2023-10-08T06:25:26;102060.28;;;18.61;100.00
19086;BME280;9675;51.538;6.728;2023-10-08T06:27:55;102061.00;;;18.57;100.00
19086;BME280;9675;51.538;6.728;2023-10-08T06:30:24;102070.69;;;18.59;100.00
19086;BME280;9675;51.538;6.728;2023-10-08T06:32:55;102067.94;;;18.56;100.00
19086;BME280;9675;51.538;6.728;2023-10-08T06:35:23;102062.66;;;18.55;100.00
19086;BME280;9675;51.538;6.728;2023-10-08T06:37:54;102048.75;;;18.54;100.00
19086;BME280;9675;51.538;6.728;2023-10-08T06:40:25;102047.97;;;18.57;100.00
19086;BME280;9675;51.538;6.728;2023-10-08T06:43:11;102069.63;;;18.54;100.00
19086;BME280;9675;51.538;6.728;2023-10-08T06:45:41;102107.66;;;18.49;100.00
19086;BME280;9675;51.538;6.728;2023-10-08T06:48:09;102118.94;;;18.48;100.00
19086;BME280;9675;51.538;6.728;2023-10-08T06:50:44;102120.66;;;18.48;100.00
19086;BME280;9675;51.538;6.728;2023-10-08T06:53:12;102124.06;;;18.47;100.00
19086;BME280;9675;51.538;6.728;2023-10-08T06:55:40;102116.25;;;18.47;100.00
19086;BME280;9675;51.538;6.728;2023-10-08T06:58:07;102103.22;;;18.47;100.00
19086;BME280;9675;51.538;6.728;2023-10-08T07:00:37;102095.44;;;18.48;100.00
19086;BME280;9675;51.538;6.728;2023-10-08T07:03:06;102094.56;;;18.48;100.00
19086;BME280;9675;51.538;6.728;2023-10-08T07:05:37;102108.50;;;18.48;100.00
19086;BME280;9675;51.538;6.728;2023-10-08T07:08:08;102137.06;;;18.45;100.00
19086;BME280;9675;51.538;6.728;2023-10-08T07:10:35;102139.63;;;18.44;100.00
19086;BME280;9675;51.538;6.728;2023-10-08T07:13:03;102151.81;;;18.45;100.00
19086;BME280;9675;51.538;6.728;2023-10-08T07:15:35;102145.78;;;18.46;100.00
19086;BME280;9675;51.538;6.728;2023-10-08T07:18:06;102150.09;;;18.45;100.00
19086;BME280;9675;51.538;6.728;2023-10-08T07:20:40;102156.09;;;18.43;100.00
19086;BME280;9675;51.538;6.728;2023-10-08T07:23:08;102149.91;;;18.41;100.00
19086;BME280;9675;51.538;6.728;2023-10-08T07:25:46;102132.56;;;18.41;100.00
19086;BME280;9675;51.538;6.728;2023-10-08T07:28:19;102114.31;;;18.41;100.00
19086;BME280;9675;51.538;6.728;2023-10-08T07:30:47;102110.94;;;18.44;100.00
19086;BME280;9675;51.538;6.728;2023-10-08T07:33:16;102104.00;;;18.44;100.00
19086;BME280;9675;51.538;6.728;2023-10-08T07:35:46;102117.88;;;18.43;100.00
19086;BME280;9675;51.538;6.728;2023-10-08T07:38:25;102120.50;;;18.45;100.00
19086;BME280;9675;51.538;6.728;2023-10-08T07:40:55;102134.41;;;18.44;100.00
19086;BME280;9675;51.538;6.728;2023-10-08T07:43:23;102138.75;;;18.43;100.00
19086;BME280;9675;51.538;6.728;2023-10-08T07:45:51;102145.78;;;18.46;100.00
19086;BME280;9675;51.538;6.728;2023-10-08T07:48:20;102144.06;;;18.46;100.00
19086;BME280;9675;51.538;6.728;2023-10-08T07:50:56;102138.84;;;18.46;100.00
19086;BME280;9675;51.538;6.728;2023-10-08T07:53:23;102141.44;;;18.46;100.00
19086;BME280;9675;51.538;6.728;2023-10-08T07:56:04;102136.16;;;18.45;100.00
19086;BME280;9675;51.538;6.728;2023-10-08T07:58:35;102137.91;;;18.44;100.00
19086;BME280;9675;51.538;6.728;2023-10-08T08:01:05;102146.59;;;18.45;100.00
19086;BME280;9675;51.538;6.728;2023-10-08T08:03:33;102160.44;;;18.42;100.00
19086;BME280;9675;51.538;6.728;2023-10-08T08:06:03;102161.25;;;18.41;100.00
19086;BME280;9675;51.538;6.728;2023-10-08T08:08:32;102157.75;;;18.41;100.00
19086;BME280;9675;51.538;6.728;2023-10-08T08:11:01;102164.66;;;18.39;100.00
19086;BME280;9675;51.538;6.728;2023-10-08T08:13:34;102176.00;;;18.41;100.00
19086;BME280;9675;51.538;6.728;2023-10-08T08:16:01;102179.44;;;18.40;100.00
19086;BME280;9675;51.538;6.728;2023-10-08T08:18:44;102180.28;;;18.39;100.00
19086;BME280;9675;51.538;6.728;2023-10-08T08:21:11;102189.75;;;18.37;100.00
19086;BME280;9675;51.538;6.728;2023-10-08T08:23:42;102196.78;;;18.38;100.00
19086;BME280;9675;51.538;6.728;2023-10-08T08:26:15;102189.75;;;18.37;100.00
19086;BME280;9675;51.538;6.728;2023-10-08T08:28:54;102189.75;;;18.37;100.00
19086;BME280;9675;51.538;6.728;2023-10-08T08:31:23;102180.16;;;18.36;100.00
19086;BME280;9675;51.538;6.728;2023-10-08T08:33:52;102173.22;;;18.36;100.00
19086;BME280;9675;51.538;6.728;2023-10-08T08:36:20;102177.53;;;18.36;100.00
19086;BME280;9675;51.538;6.728;2023-10-08T08:38:48;102175.66;;;18.32;100.00
19086;BME280;9675;51.538;6.728;2023-10-08T08:41:16;102190.50;;;18.34;100.00
19086;BME280;9675;51.538;6.728;2023-10-08T08:43:48;102201.84;;;18.35;100.00
19086;BME280;9675;51.538;6.728;2023-10-08T08:46:15;102192.25;;;18.34;100.00
19086;BME280;9675;51.538;6.728;2023-10-08T08:48:44;102193.19;;;18.36;100.00
19086;BME280;9675;51.538;6.728;2023-10-08T08:51:15;102205.31;;;18.34;100.00
19086;BME280;9675;51.538;6.728;2023-10-08T08:53:42;102200.91;;;18.33;100.00
19086;BME280;9675;51.538;6.728;2023-10-08T08:56:09;102207.06;;;18.35;100.00
19086;BME280;9675;51.538;6.728;2023-10-08T08:58:39;102213.16;;;18.35;100.00
19086;BME280;9675;51.538;6.728;2023-10-08T09:01:10;102214.88;;;18.35;100.00
19086;BME280;9675;51.538;6.728;2023-10-08T09:03:39;102232.31;;;18.36;100.00
19086;BME280;9675;51.538;6.728;2023-10-08T09:06:06;102234.03;;;18.35;100.00
19086;BME280;9675;51.538;6.728;2023-10-08T09:08:37;102235.75;;;18.35;100.00
19086;BME280;9675;51.538;6.728;2023-10-08T09:11:08;102243.56;;;18.35;100.00
19086;BME280;9675;51.538;6.728;2023-10-08T09:13:36;102241.81;;;18.34;100.00
19086;BME280;9675;51.538;6.728;2023-10-08T09:16:08;102242.69;;;18.34;100.00
19086;BME280;9675;51.538;6.728;2023-10-08T09:18:38;102246.16;;;18.33;100.00
19086;BME280;9675;51.538;6.728;2023-10-08T09:21:10;102247.84;;;18.33;100.00
19086;BME280;9675;51.538;6.728;2023-10-08T09:23:42;102244.34;;;18.32;100.00
19086;BME280;9675;51.538;6.728;2023-10-08T09:26:13;102251.34;;;18.33;100.00
19086;BME280;9675;51.538;6.728;2023-10-08T09:28:45;102253.06;;;18.33;100.00
19086;BME280;9675;51.538;6.728;2023-10-08T09:31:14;102260.91;;;18.33;100.00
19086;BME280;9675;51.538;6.728;2023-10-08T09:33:44;102261.72;;;18.32;100.00
19086;BME280;9675;51.538;6.728;2023-10-08T09:36:20;102266.94;;;18.32;100.00
19086;BME280;9675;51.538;6.728;2023-10-08T09:38:52;102267.75;;;18.31;100.00
19086;BME280;9675;51.538;6.728;2023-10-08T09:41:20;102272.91;;;18.29;100.00
19086;BME280;9675;51.538;6.728;2023-10-08T09:43:47;102259.00;;;18.29;100.00
19086;BME280;9675;51.538;6.728;2023-10-08T09:46:19;102260.75;;;18.30;100.00
19086;BME280;9675;51.538;6.728;2023-10-08T09:48:50;102249.44;;;18.29;100.00
19086;BME280;9675;51.538;6.728;2023-10-08T09:51:19;102253.00;;;18.31;100.00
19086;BME280;9675;51.538;6.728;2023-10-08T09:54:05;102253.78;;;18.29;100.00
19086;BME280;9675;51.538;6.728;2023-10-08T09:56:36;102252.09;;;18.31;100.00
19086;BME280;9675;51.538;6.728;2023-10-08T09:59:06;102247.72;;;18.30;100.00
19086;BME280;9675;51.538;6.728;2023-10-08T10:01:36;102255.53;;;18.30;100.00
19086;BME280;9675;51.538;6.728;2023-10-08T10:04:08;102250.31;;;18.30;100.00
19086;BME280;9675;51.538;6.728;2023-10-08T10:06:36;102251.19;;;18.29;100.00
19086;BME280;9675;51.538;6.728;2023-10-08T10:09:05;102255.50;;;18.28;100.00
19086;BME280;9675;51.538;6.728;2023-10-08T10:11:35;102258.84;;;18.25;100.00
19086;BME280;9675;51.538;6.728;2023-10-08T10:14:03;102256.69;;;18.15;100.00
19086;BME280;9675;51.538;6.728;2023-10-08T10:16:36;102256.50;;;18.11;100.00
19086;BME280;9675;51.538;6.728;2023-10-08T10:19:05;102255.53;;;18.09;100.00
19086;BME280;9675;51.538;6.728;2023-10-08T10:21:33;102260.91;;;18.12;100.00
19086;BME280;9675;51.538;6.728;2023-10-08T10:24:01;102259.13;;;18.11;100.00
19086;BME280;9675;51.538;6.728;2023-10-08T10:26:34;102266.03;;;18.10;100.00
19086;BME280;9675;51.538;6.728;2023-10-08T10:29:20;102265.31;;;18.13;100.00
19086;BME280;9675;51.538;6.728;2023-10-08T10:31:49;102264.44;;;18.14;100.00
19086;BME280;9675;51.538;6.728;2023-10-08T10:34:21;102269.72;;;18.15;100.00
19086;BME280;9675;51.538;6.728;2023-10-08T10:36:51;102269.66;;;18.14;100.00
19086;BME280;9675;51.538;6.728;2023-10-08T10:39:25;102280.16;;;18.15;100.00
19086;BME280;9675;51.538;6.728;2023-10-08T10:42:00;102283.59;;;18.14;100.00
19086;BME280;9675;51.538;6.728;2023-10-08T10:44:30;102294.03;;;18.14;100.00
19086;BME280;9675;51.538;6.728;2023-10-08T10:46:59;102287.09;;;18.15;100.00
19086;BME280;9675;51.538;6.728;2023-10-08T10:49:45;102286.19;;;18.14;100.00
19086;BME280;9675;51.538;6.728;2023-10-08T10:52:20;102283.56;;;18.13;100.00
19086;BME280;9675;51.538;6.728;2023-10-08T10:55:03;102289.66;;;18.13;100.00
19086;BME280;9675;51.538;6.728;2023-10-08T10:57:49;102282.78;;;18.15;100.00
19086;BME280;9675;51.538;6.728;2023-10-08T11:00:28;102287.06;;;18.13;100.00
19086;BME280;9675;51.538;6.728;2023-10-08T11:03:13;102286.19;;;18.14;100.00
19086;BME280;9675;51.538;6.728;2023-10-08T11:05:46;102279.22;;;18.13;100.00
19086;BME280;9675;51.538;6.728;2023-10-08T11:08:18;102272.28;;;18.14;100.00
19086;BME280;9675;51.538;6.728;2023-10-08T11:10:48;102267.13;;;18.15;100.00
19086;BME280;9675;51.538;6.728;2023-10-08T11:13:19;102274.13;;;18.16;100.00
19086;BME280;9675;51.538;6.728;2023-10-08T11:15:50;102270.63;;;18.16;100.00
19086;BME280;9675;51.538;6.728;2023-10-08T11:18:23;102271.59;;;18.18;100.00
19086;BME280;9675;51.538;6.728;2023-10-08T11:20:51;102274.94;;;18.15;100.00
19086;BME280;9675;51.538;6.728;2023-10-08T11:23:35;102267.91;;;18.13;100.00
19086;BME280;9675;51.538;6.728;2023-10-08T11:26:04;102274.13;;;18.16;100.00
19086;BME280;9675;51.538;6.728;2023-10-08T11:28:35;102260.91;;;18.12;100.00
19086;BME280;9675;51.538;6.728;2023-10-08T11:31:10;102274.13;;;18.16;100.00
19086;BME280;9675;51.538;6.728;2023-10-08T11:33:40;102267.13;;;18.15;100.00
19086;BME280;9675;51.538;6.728;2023-10-08T11:36:09;102268.09;;;18.17;100.00
19086;BME280;9675;51.538;6.728;2023-10-08T11:38:44;102266.38;;;18.18;100.00
19086;BME280;9675;51.538;6.728;2023-10-08T11:41:17;102261.16;;;18.18;100.00
19086;BME280;9675;51.538;6.728;2023-10-08T11:43:54;102251.63;;;18.18;100.00
19086;BME280;9675;51.538;6.728;2023-10-08T11:46:24;102250.78;;;18.19;100.00
19086;BME280;9675;51.538;6.728;2023-10-08T11:48:59;102244.75;;;18.20;100.00
19086;BME280;9675;51.538;6.728;2023-10-08T11:51:31;102250.03;;;18.22;100.00
19086;BME280;9675;51.538;6.728;2023-10-08T11:53:59;102235.09;;;18.18;100.00
19086;BME280;9675;51.538;6.728;2023-10-08T11:56:28;102236.09;;;18.21;100.00
19086;BME280;9675;51.538;6.728;2023-10-08T11:58:56;102233.56;;;18.23;100.00
19086;BME280;9675;51.538;6.728;2023-10-08T12:01:24;102237.16;;;18.26;100.00
19086;BME280;9675;51.538;6.728;2023-10-08T12:03:52;102236.34;;;18.27;100.00
19086;BME280;9675;51.538;6.728;2023-10-08T12:06:25;102230.44;;;18.32;100.00
19086;BME280;9675;51.538;6.728;2023-10-08T12:08:55;102231.38;;;18.34;100.00
19086;BME280;9675;51.538;6.728;2023-10-08T12:11:25;102233.09;;;18.33;100.00
19086;BME280;9675;51.538;6.728;2023-10-08T12:13:58;102233.13;;;18.35;100.00
19086;BME280;9675;51.538;6.728;2023-10-08T12:16:26;102227.94;;;18.35;100.00
19086;BME280;9675;51.538;6.728;2023-10-08T12:18:56;102235.00;;;18.37;100.00
19086;BME280;9675;51.538;6.728;2023-10-08T12:21:25;102225.53;;;18.39;100.00
19086;BME280;9675;51.538;6.728;2023-10-08T12:23:55;102235.19;;;18.42;100.00
19086;BME280;9675;51.538;6.728;2023-10-08T12:26:23;102228.31;;;18.44;100.00
19086;BME280;9675;51.538;6.728;2023-10-08T12:28:51;102223.09;;;18.44;100.00
19086;BME280;9675;51.538;6.728;2023-10-08T12:31:21;102225.72;;;18.44;100.00
19086;BME280;9675;51.538;6.728;2023-10-08T12:33:51;102219.53;;;18.42;100.00
19086;BME280;9675;51.538;6.728;2023-10-08T12:36:19;102224.00;;;18.44;100.00
19086;BME280;9675;51.538;6.728;2023-10-08T12:38:50;102226.63;;;18.46;100.00
19086;BME280;9675;51.538;6.728;2023-10-08T12:41:23;102217.03;;;18.45;100.00
19086;BME280;9675;51.538;6.728;2023-10-08T12:43:51;102202.34;;;18.47;100.00
19086;BME280;9675;51.538;6.728;2023-10-08T12:46:22;102203.31;;;18.49;100.00
19086;BME280;9675;51.538;6.728;2023-10-08T12:48:52;102197.22;;;18.50;100.00
19086;BME280;9675;51.538;6.728;2023-10-08T12:51:21;102199.84;;;18.50;100.00
19086;BME280;9675;51.538;6.728;2023-10-08T12:53:50;102209.44;;;18.51;100.00
19086;BME280;9675;51.538;6.728;2023-10-08T12:56:24;102212.06;;;18.51;100.00
19086;BME280;9675;51.538;6.728;2023-10-08T12:58:58;102193.88;;;18.52;100.00
19086;BME280;9675;51.538;6.728;2023-10-08T13:01:27;102199.97;;;18.53;100.00
19086;BME280;9675;51.538;6.728;2023-10-08T13:03:55;102194.75;;;18.53;100.00
19086;BME280;9675;51.538;6.728;2023-10-08T13:06:27;102192.16;;;18.53;100.00
19086;BME280;9675;51.538;6.728;2023-10-08T13:08:56;102192.16;;;18.53;100.00
19086;BME280;9675;51.538;6.728;2023-10-08T13:11:26;102187.88;;;18.55;100.00
19086;BME280;9675;51.538;6.728;2023-10-08T13:13:56;102179.25;;;18.56;100.00
19086;BME280;9675;51.538;6.728;2023-10-08T13:16:27;102167.09;;;18.56;100.00